createdAt,value
2023-05-22T00:00:36.297Z,100.00
2023-05-22T00:03:11.881Z,100.00
2023-05-22T00:05:45.102Z,100.00
2023-05-22T00:08:14.735Z,100.00
2023-05-22T00:10:43.157Z,100.00
2023-05-22T00:18:34.684Z,100.00
2023-05-22T00:21:05.832Z,100.00
2023-05-22T00:23:32.882Z,100.00
2023-05-22T00:26:02.461Z,100.00
2023-05-22T00:28:30.228Z,100.00
2023-05-22T00:30:57.236Z,100.00
2023-05-22T00:33:28.148Z,100.00
2023-05-22T00:35:54.990Z,100.00
2023-05-22T00:38:33.034Z,100.00
2023-05-22T00:41:02.954Z,100.00
2023-05-22T00:43:29.649Z,100.00
2023-05-22T00:45:58.684Z,100.00
2023-05-22T00:51:09.338Z,100.00
2023-05-22T00:53:37.359Z,100.00
2023-05-22T00:56:04.448Z,100.00
2023-05-22T00:58:31.725Z,100.00
2023-05-22T01:01:01.056Z,100.00
2023-05-22T01:03:32.879Z,100.00
2023-05-22T01:05:59.616Z,100.00
2023-05-22T01:08:34.845Z,100.00
2023-05-22T01:11:28.617Z,100.00
2023-05-22T01:14:21.390Z,100.00
2023-05-22T01:17:09.350Z,100.00
2023-05-22T01:20:18.842Z,100.00
2023-05-22T01:23:22.874Z,100.00
2023-05-22T01:26:27.165Z,100.00
2023-05-22T01:29:19.535Z,100.00
2023-05-22T01:31:51.170Z,100.00
2023-05-22T01:34:21.453Z,100.00
2023-05-22T01:36:52.272Z,100.00
2023-05-22T01:39:26.969Z,100.00
2023-05-22T01:44:35.570Z,100.00
2023-05-22T01:47:12.094Z,100.00
2023-05-22T01:49:49.093Z,100.00
2023-05-22T01:55:36.812Z,100.00
2023-05-22T01:58:17.276Z,100.00
2023-05-22T02:03:38.662Z,100.00
2023-05-22T02:06:10.077Z,100.00
2023-05-22T02:08:41.054Z,100.00
2023-05-22T02:11:12.212Z,100.00
2023-05-22T02:13:40.158Z,100.00
2023-05-22T02:16:07.637Z,100.00
2023-05-22T02:18:40.985Z,100.00
2023-05-22T02:21:12.907Z,100.00
2023-05-22T02:23:41.625Z,100.00
2023-05-22T02:26:09.359Z,100.00
2023-05-22T02:31:21.043Z,100.00
2023-05-22T02:33:49.701Z,100.00
2023-05-22T02:36:22.116Z,100.00
2023-05-22T02:38:51.781Z,100.00
2023-05-22T02:41:18.822Z,100.00
2023-05-22T02:43:49.519Z,100.00
2023-05-22T02:46:20.142Z,100.00
2023-05-22T02:48:49.115Z,100.00
2023-05-22T02:51:21.971Z,100.00
2023-05-22T02:53:49.307Z,100.00
2023-05-22T02:56:19.409Z,100.00
2023-05-22T02:58:46.577Z,100.00
2023-05-22T03:01:14.720Z,100.00
2023-05-22T03:03:42.220Z,100.00
2023-05-22T03:06:14.434Z,100.00
2023-05-22T03:08:43.981Z,100.00
2023-05-22T03:11:12.418Z,100.00
2023-05-22T03:13:39.381Z,100.00
2023-05-22T03:16:07.939Z,100.00
2023-05-22T03:18:36.446Z,100.00
2023-05-22T03:21:10.103Z,100.00
2023-05-22T03:23:42.927Z,100.00
2023-05-22T03:26:12.829Z,100.00
2023-05-22T03:28:40.778Z,100.00
2023-05-22T03:36:37.628Z,100.00
2023-05-22T03:39:05.063Z,100.00
2023-05-22T03:41:33.745Z,100.00
2023-05-22T03:44:03.754Z,100.00
2023-05-22T03:51:58.495Z,100.00
2023-05-22T03:54:29.680Z,100.00
2023-05-22T03:56:56.521Z,100.00
2023-05-22T03:59:24.395Z,100.00
2023-05-22T04:01:51.361Z,100.00
2023-05-22T04:04:23.311Z,100.00
2023-05-22T04:07:06.233Z,100.00
2023-05-22T04:09:35.608Z,100.00
2023-05-22T04:12:04.305Z,100.00
2023-05-22T04:14:31.624Z,100.00
2023-05-22T04:16:58.601Z,100.00
2023-05-22T04:19:28.018Z,100.00
2023-05-22T04:22:05.127Z,100.00
2023-05-22T04:24:33.272Z,100.00
2023-05-22T04:27:01.320Z,100.00
2023-05-22T04:29:28.794Z,100.00
2023-05-22T04:31:56.099Z,100.00
2023-05-22T04:34:34.605Z,100.00
2023-05-22T04:37:04.322Z,100.00
2023-05-22T04:42:18.055Z,100.00
2023-05-22T04:44:44.831Z,100.00
2023-05-22T04:49:59.301Z,100.00
2023-05-22T04:52:27.463Z,100.00
2023-05-22T04:55:00.863Z,100.00
2023-05-22T04:57:33.332Z,100.00
2023-05-22T05:00:00.390Z,100.00
2023-05-22T05:10:32.501Z,100.00
2023-05-22T05:13:02.461Z,100.00
2023-05-22T05:15:30.602Z,100.00
2023-05-22T05:17:57.767Z,100.00
2023-05-22T05:20:26.189Z,100.00
2023-05-22T05:25:43.979Z,100.00
2023-05-22T05:28:14.774Z,100.00
2023-05-22T05:30:55.962Z,100.00
2023-05-22T05:33:24.738Z,100.00
2023-05-22T05:35:58.500Z,100.00
2023-05-22T05:38:30.016Z,100.00
2023-05-22T05:41:23.237Z,100.00
2023-05-22T05:49:33.628Z,100.00
2023-05-22T05:54:55.438Z,100.00
2023-05-22T05:57:25.158Z,100.00
2023-05-22T06:00:02.969Z,100.00
2023-05-22T06:05:12.205Z,100.00
2023-05-22T06:07:44.942Z,100.00
2023-05-22T06:10:15.896Z,100.00
2023-05-22T06:15:28.032Z,100.00
2023-05-22T06:18:14.870Z,95.98
2023-05-22T06:30:06.909Z,86.64
2023-05-22T06:32:39.167Z,84.89
2023-05-22T06:35:07.586Z,86.48
2023-05-22T06:37:44.317Z,82.49
2023-05-22T06:40:13.683Z,83.41
2023-05-22T06:42:44.110Z,84.84
2023-05-22T06:48:04.007Z,83.81
2023-05-22T06:50:34.055Z,80.17
2023-05-22T06:53:07.092Z,79.86
2023-05-22T06:55:34.321Z,77.29
2023-05-22T07:03:40.353Z,76.92
2023-05-22T07:09:29.629Z,74.30
2023-05-22T07:11:56.778Z,74.76
2023-05-22T07:19:26.372Z,69.96
2023-05-22T07:24:46.844Z,65.60
2023-05-22T07:57:29.186Z,56.65
2023-05-22T08:08:20.817Z,55.29
2023-05-22T09:20:46.944Z,57.04
2023-05-22T09:26:58.301Z,59.27
2023-05-22T09:35:40.103Z,59.97
2023-05-22T09:38:30.886Z,59.62
2023-05-22T09:56:14.823Z,56.00
2023-05-22T10:01:50.336Z,56.70
2023-05-22T10:26:58.122Z,48.10
2023-05-22T10:33:01.979Z,49.71
2023-05-22T10:41:52.092Z,50.05
2023-05-22T10:44:25.648Z,50.30
2023-05-22T10:52:35.097Z,50.83
2023-05-22T11:33:28.988Z,43.54
2023-05-22T12:12:57.853Z,41.49
2023-05-22T12:20:03.661Z,40.29
2023-05-22T12:23:07.958Z,40.45
2023-05-22T12:28:28.494Z,41.70
2023-05-22T12:31:00.857Z,41.32
2023-05-22T12:33:31.961Z,40.27
2023-05-22T12:36:01.351Z,40.85
2023-05-22T12:38:40.546Z,40.18
2023-05-22T12:41:10.551Z,39.78
2023-05-22T12:59:33.032Z,40.00
2023-05-22T13:05:04.071Z,39.79
2023-05-22T13:13:09.548Z,38.49
2023-05-22T13:15:39.920Z,38.71
2023-05-22T13:21:10.317Z,38.55
2023-05-22T13:23:56.626Z,37.21
2023-05-22T13:26:38.054Z,38.55
2023-05-22T13:43:54.424Z,37.32
2023-05-22T13:51:50.349Z,37.62
2023-05-22T13:57:13.203Z,37.37
2023-05-22T13:59:53.810Z,37.21
2023-05-22T14:13:30.144Z,36.53
2023-05-22T14:16:00.392Z,36.79
2023-05-22T14:21:16.344Z,39.25
2023-05-22T14:24:00.615Z,39.14
2023-05-22T14:26:31.655Z,39.55
2023-05-22T14:28:58.752Z,39.32
2023-05-22T14:34:22.268Z,39.78
2023-05-22T14:39:31.330Z,39.37
2023-05-22T14:42:15.571Z,39.85
2023-05-22T14:47:47.673Z,37.98
2023-05-22T14:50:38.191Z,39.22
2023-05-22T14:53:08.853Z,40.77
2023-05-22T14:55:54.856Z,41.06
2023-05-22T14:58:32.829Z,41.89
2023-05-22T15:01:01.616Z,41.66
2023-05-22T15:06:24.336Z,42.16
2023-05-22T15:08:51.012Z,42.87
2023-05-22T15:11:19.470Z,43.06
2023-05-22T15:16:47.372Z,43.44
2023-05-22T15:19:15.511Z,42.66
2023-05-22T15:24:30.877Z,42.26
2023-05-22T15:27:48.861Z,42.56
2023-05-22T15:30:34.668Z,44.10
2023-05-22T15:33:03.804Z,43.88
2023-05-22T15:35:34.055Z,42.97
2023-05-22T15:38:00.857Z,43.11
2023-05-22T15:40:49.273Z,43.08
2023-05-22T15:43:18.243Z,42.16
2023-05-22T15:45:53.511Z,41.00
2023-05-22T15:48:32.490Z,40.95
2023-05-22T15:51:02.516Z,40.71
2023-05-22T15:53:29.404Z,40.75
2023-05-22T15:55:56.902Z,40.70
2023-05-22T16:01:08.197Z,40.32
2023-05-22T16:03:35.414Z,40.40
2023-05-22T16:08:45.060Z,41.36
2023-05-22T16:11:14.768Z,42.20
2023-05-22T16:13:41.824Z,42.60
2023-05-22T16:16:08.671Z,43.20
2023-05-22T16:18:41.051Z,43.94
2023-05-22T16:23:49.402Z,42.47
2023-05-22T16:29:16.974Z,42.07
2023-05-22T16:32:14.947Z,42.05
2023-05-22T16:34:45.441Z,41.03
2023-05-22T16:37:22.273Z,41.40
2023-05-22T17:04:36.210Z,47.00
2023-05-22T17:07:26.115Z,47.42
2023-05-22T17:09:52.735Z,48.24
2023-05-22T17:15:13.665Z,49.88
2023-05-22T17:34:17.768Z,50.78
2023-05-22T17:36:53.184Z,51.40
2023-05-22T17:39:27.802Z,50.93
2023-05-22T17:59:11.173Z,64.46
2023-05-22T18:01:41.035Z,66.23
2023-05-22T18:06:58.529Z,71.72
2023-05-22T18:14:49.095Z,76.06
2023-05-22T18:17:16.333Z,78.45
2023-05-22T18:19:50.264Z,83.72
2023-05-22T18:28:13.224Z,80.71
2023-05-22T18:41:41.325Z,79.83
2023-05-22T18:50:35.168Z,82.40
2023-05-22T18:58:38.480Z,83.83
2023-05-22T19:03:46.261Z,86.05
2023-05-22T19:12:49.619Z,91.18
2023-05-22T19:15:16.925Z,93.73
2023-05-22T19:17:47.934Z,95.22
2023-05-22T19:29:20.660Z,86.29
2023-05-22T19:35:05.201Z,82.33
2023-05-22T19:37:39.130Z,80.22
2023-05-22T19:40:16.221Z,80.98
2023-05-22T19:53:05.276Z,78.59
2023-05-22T20:03:42.835Z,79.95
2023-05-22T20:12:35.612Z,82.48
2023-05-22T20:21:35.239Z,78.88
2023-05-22T20:28:08.546Z,79.86
2023-05-22T20:30:56.570Z,81.68
2023-05-22T20:45:13.619Z,81.78
2023-05-22T20:47:41.446Z,85.22
2023-05-22T20:50:13.224Z,86.24
2023-05-22T20:55:30.811Z,90.06
2023-05-22T20:57:59.162Z,90.88
2023-05-22T21:45:28.524Z,100.00
2023-05-22T21:47:55.434Z,100.00
2023-05-22T21:50:25.455Z,100.00
2023-05-22T21:52:55.928Z,100.00
2023-05-22T21:55:25.478Z,100.00
2023-05-22T21:57:53.118Z,100.00
2023-05-22T22:00:20.449Z,100.00
2023-05-22T22:02:48.304Z,100.00
2023-05-22T22:05:20.750Z,100.00
2023-05-22T22:10:28.981Z,100.00
2023-05-22T22:12:56.511Z,100.00
2023-05-22T22:18:25.127Z,100.00
2023-05-22T22:20:56.875Z,100.00
2023-05-22T22:29:24.897Z,100.00
2023-05-22T22:31:54.606Z,100.00
2023-05-22T22:34:24.734Z,100.00
2023-05-22T22:36:52.866Z,100.00
2023-05-22T22:39:21.096Z,100.00
2023-05-22T22:41:48.429Z,100.00
2023-05-22T22:44:15.682Z,100.00
2023-05-22T22:46:43.685Z,100.00
2023-05-22T22:49:13.694Z,100.00
2023-05-22T22:51:45.270Z,100.00
2023-05-22T22:56:59.816Z,100.00
2023-05-22T22:59:26.932Z,100.00
2023-05-22T23:01:58.547Z,100.00
2023-05-22T23:04:28.457Z,100.00
2023-05-22T23:06:57.998Z,100.00
2023-05-22T23:09:32.720Z,100.00
2023-05-22T23:11:59.308Z,100.00
2023-05-22T23:14:30.706Z,100.00
2023-05-22T23:16:58.628Z,100.00
2023-05-22T23:19:25.452Z,100.00
2023-05-22T23:21:54.207Z,100.00
2023-05-22T23:24:23.524Z,100.00
2023-05-22T23:26:51.140Z,100.00
2023-05-22T23:29:29.595Z,100.00
2023-05-22T23:31:57.073Z,100.00
2023-05-22T23:34:27.402Z,100.00
2023-05-22T23:36:54.041Z,100.00
2023-05-22T23:39:29.805Z,100.00
2023-05-22T23:41:56.517Z,100.00
2023-05-22T23:44:24.048Z,100.00
2023-05-22T23:46:52.205Z,100.00
2023-05-22T23:49:18.757Z,100.00
2023-05-22T23:51:46.703Z,100.00
2023-05-22T23:54:13.971Z,100.00
2023-05-22T23:56:40.518Z,100.00
2023-05-22T23:59:13.882Z,100.00
